sensor_id;sensor_type;location;lat;lon;timestamp;P1;durP1;ratioP1;P2;durP2;ratioP2
57667;SDS011;43499;52.366;12.912;2023-12-20T00:00:09;2.95;;;1.63;;
57667;SDS011;43499;52.366;12.912;2023-12-20T00:04:27;0.98;;;0.98;;
57667;SDS011;43499;52.366;12.912;2023-12-20T00:08:24;1.95;;;1.30;;
57667;SDS011;43499;52.366;12.912;2023-12-20T00:23:04;2.47;;;1.50;;
57667;SDS011;43499;52.366;12.912;2023-12-20T00:26:50;2.63;;;1.63;;
57667;SDS011;43499;52.366;12.912;2023-12-20T00:28:58;1.10;;;0.85;;
57667;SDS011;43499;52.366;12.912;2023-12-20T00:31:17;1.80;;;1.20;;
57667;SDS011;43499;52.366;12.912;2023-12-20T00:32:39;1.00;;;0.80;;
57667;SDS011;43499;52.366;12.912;2023-12-20T00:34:07;1.60;;;0.75;;
57667;SDS011;43499;52.366;12.912;2023-12-20T00:35:29;1.75;;;1.35;;
57667;SDS011;43499;52.366;12.912;2023-12-20T00:41:19;0.60;;;0.50;;
57667;SDS011;43499;52.366;12.912;2023-12-20T00:42:53;2.10;;;1.65;;
57667;SDS011;43499;52.366;12.912;2023-12-20T00:46:37;1.63;;;1.52;;
57667;SDS011;43499;52.366;12.912;2023-12-20T00:52:54;1.70;;;1.50;;
57667;SDS011;43499;52.366;12.912;2023-12-20T01:02:18;2.13;;;1.15;;
57667;SDS011;43499;52.366;12.912;2023-12-20T01:03:34;3.63;;;1.73;;
57667;SDS011;43499;52.366;12.912;2023-12-20T01:05:08;2.63;;;1.27;;
57667;SDS011;43499;52.366;12.912;2023-12-20T01:06:38;2.00;;;1.60;;
57667;SDS011;43499;52.366;12.912;2023-12-20T01:16:10;1.63;;;1.10;;
57667;SDS011;43499;52.366;12.912;2023-12-20T01:17:37;1.80;;;0.95;;
57667;SDS011;43499;52.366;12.912;2023-12-20T01:19:30;1.60;;;1.17;;
57667;SDS011;43499;52.366;12.912;2023-12-20T01:21:21;1.80;;;1.25;;
57667;SDS011;43499;52.366;12.912;2023-12-20T01:22:56;2.05;;;1.17;;
57667;SDS011;43499;52.366;12.912;2023-12-20T01:24:15;1.38;;;1.23;;
57667;SDS011;43499;52.366;12.912;2023-12-20T01:26:24;1.58;;;1.48;;
57667;SDS011;43499;52.366;12.912;2023-12-20T01:27:41;2.00;;;1.48;;
57667;SDS011;43499;52.366;12.912;2023-12-20T01:32:14;1.73;;;1.10;;
57667;SDS011;43499;52.366;12.912;2023-12-20T01:34:02;2.28;;;2.05;;
57667;SDS011;43499;52.366;12.912;2023-12-20T01:35:44;2.83;;;2.15;;
57667;SDS011;43499;52.366;12.912;2023-12-20T01:37:31;4.85;;;1.75;;
57667;SDS011;43499;52.366;12.912;2023-12-20T01:39:13;2.13;;;1.20;;
57667;SDS011;43499;52.366;12.912;2023-12-20T01:43:25;4.15;;;1.80;;
57667;SDS011;43499;52.366;12.912;2023-12-20T01:45:17;2.58;;;1.33;;
57667;SDS011;43499;52.366;12.912;2023-12-20T01:47:15;3.03;;;1.77;;
57667;SDS011;43499;52.366;12.912;2023-12-20T01:53:08;3.22;;;2.92;;
57667;SDS011;43499;52.366;12.912;2023-12-20T01:59:00;3.35;;;2.35;;
57667;SDS011;43499;52.366;12.912;2023-12-20T02:00:55;2.92;;;2.72;;
57667;SDS011;43499;52.366;12.912;2023-12-20T02:02:45;3.63;;;2.42;;
57667;SDS011;43499;52.366;12.912;2023-12-20T02:06:24;2.28;;;1.65;;
57667;SDS011;43499;52.366;12.912;2023-12-20T02:10:12;2.05;;;1.73;;
57667;SDS011;43499;52.366;12.912;2023-12-20T02:12:03;2.08;;;1.67;;
57667;SDS011;43499;52.366;12.912;2023-12-20T02:17:50;2.47;;;1.33;;
57667;SDS011;43499;52.366;12.912;2023-12-20T02:19:08;2.35;;;1.73;;
57667;SDS011;43499;52.366;12.912;2023-12-20T02:21:26;3.42;;;2.05;;
57667;SDS011;43499;52.366;12.912;2023-12-20T02:24:58;3.50;;;2.38;;
57667;SDS011;43499;52.366;12.912;2023-12-20T02:35:46;2.63;;;1.80;;
57667;SDS011;43499;52.366;12.912;2023-12-20T02:37:19;4.45;;;2.45;;
57667;SDS011;43499;52.366;12.912;2023-12-20T02:44:01;4.63;;;2.03;;
57667;SDS011;43499;52.366;12.912;2023-12-20T02:45:47;3.95;;;2.58;;
57667;SDS011;43499;52.366;12.912;2023-12-20T02:47:24;4.22;;;2.10;;
57667;SDS011;43499;52.366;12.912;2023-12-20T02:48:49;3.20;;;2.25;;
57667;SDS011;43499;52.366;12.912;2023-12-20T02:52:57;3.03;;;1.60;;
57667;SDS011;43499;52.366;12.912;2023-12-20T02:54:59;3.45;;;1.80;;
57667;SDS011;43499;52.366;12.912;2023-12-20T02:56:43;3.67;;;2.05;;
57667;SDS011;43499;52.366;12.912;2023-12-20T02:58:32;4.68;;;2.30;;
57667;SDS011;43499;52.366;12.912;2023-12-20T03:00:48;3.60;;;1.80;;
57667;SDS011;43499;52.366;12.912;2023-12-20T03:03:35;3.92;;;1.92;;
57667;SDS011;43499;52.366;12.912;2023-12-20T03:05:45;4.00;;;1.63;;
57667;SDS011;43499;52.366;12.912;2023-12-20T03:08:23;3.40;;;1.70;;
57667;SDS011;43499;52.366;12.912;2023-12-20T03:12:11;3.35;;;1.90;;
57667;SDS011;43499;52.366;12.912;2023-12-20T03:18:00;3.72;;;1.50;;
57667;SDS011;43499;52.366;12.912;2023-12-20T03:22:19;2.95;;;1.65;;
57667;SDS011;43499;52.366;12.912;2023-12-20T03:23:56;3.08;;;2.05;;
57667;SDS011;43499;52.366;12.912;2023-12-20T03:26:16;3.38;;;1.85;;
57667;SDS011;43499;52.366;12.912;2023-12-20T03:27:42;3.17;;;1.83;;
57667;SDS011;43499;52.366;12.912;2023-12-20T03:29:38;6.00;;;2.00;;
57667;SDS011;43499;52.366;12.912;2023-12-20T03:31:39;3.22;;;1.40;;
57667;SDS011;43499;52.366;12.912;2023-12-20T03:33:20;2.22;;;1.20;;
57667;SDS011;43499;52.366;12.912;2023-12-20T03:37:31;1.70;;;1.10;;
57667;SDS011;43499;52.366;12.912;2023-12-20T03:39:21;4.53;;;0.98;;
57667;SDS011;43499;52.366;12.912;2023-12-20T03:40:51;3.47;;;1.13;;
57667;SDS011;43499;52.366;12.912;2023-12-20T03:43:13;3.05;;;0.50;;
57667;SDS011;43499;52.366;12.912;2023-12-20T03:46:12;4.47;;;0.80;;
57667;SDS011;43499;52.366;12.912;2023-12-20T03:50:29;3.75;;;0.77;;
57667;SDS011;43499;52.366;12.912;2023-12-20T03:52:27;4.63;;;0.82;;
57667;SDS011;43499;52.366;12.912;2023-12-20T03:56:46;1.75;;;0.63;;
57667;SDS011;43499;52.366;12.912;2023-12-20T03:58:59;3.05;;;0.77;;
57667;SDS011;43499;52.366;12.912;2023-12-20T04:00:44;1.58;;;0.65;;
57667;SDS011;43499;52.366;12.912;2023-12-20T04:02:09;5.00;;;1.00;;
57667;SDS011;43499;52.366;12.912;2023-12-20T04:04:12;2.65;;;0.85;;
57667;SDS011;43499;52.366;12.912;2023-12-20T04:12:50;5.63;;;0.70;;
57667;SDS011;43499;52.366;12.912;2023-12-20T04:14:40;5.45;;;0.82;;
57667;SDS011;43499;52.366;12.912;2023-12-20T04:16:28;3.60;;;0.30;;
57667;SDS011;43499;52.366;12.912;2023-12-20T04:18:11;4.75;;;0.50;;
57667;SDS011;43499;52.366;12.912;2023-12-20T04:20:00;2.40;;;0.60;;
57667;SDS011;43499;52.366;12.912;2023-12-20T04:21:49;3.83;;;0.80;;
57667;SDS011;43499;52.366;12.912;2023-12-20T04:23:31;3.88;;;0.43;;
57667;SDS011;43499;52.366;12.912;2023-12-20T04:27:35;7.15;;;0.70;;
57667;SDS011;43499;52.366;12.912;2023-12-20T04:29:24;3.97;;;0.60;;
57667;SDS011;43499;52.366;12.912;2023-12-20T04:31:47;3.58;;;0.80;;
57667;SDS011;43499;52.366;12.912;2023-12-20T04:35:05;2.78;;;0.68;;
57667;SDS011;43499;52.366;12.912;2023-12-20T04:36:31;1.70;;;0.40;;
57667;SDS011;43499;52.366;12.912;2023-12-20T04:38:55;2.83;;;0.32;;
57667;SDS011;43499;52.366;12.912;2023-12-20T04:40:20;1.83;;;0.60;;
57667;SDS011;43499;52.366;12.912;2023-12-20T04:41:40;3.05;;;0.63;;
57667;SDS011;43499;52.366;12.912;2023-12-20T04:42:57;5.60;;;0.55;;
57667;SDS011;43499;52.366;12.912;2023-12-20T04:44:26;5.63;;;0.68;;
57667;SDS011;43499;52.366;12.912;2023-12-20T04:46:03;6.05;;;1.02;;
57667;SDS011;43499;52.366;12.912;2023-12-20T04:47:54;5.55;;;0.50;;
57667;SDS011;43499;52.366;12.912;2023-12-20T04:49:46;5.97;;;0.38;;
57667;SDS011;43499;52.366;12.912;2023-12-20T04:51:19;5.10;;;0.73;;
57667;SDS011;43499;52.366;12.912;2023-12-20T04:53:08;4.75;;;0.50;;
57667;SDS011;43499;52.366;12.912;2023-12-20T04:55:10;6.75;;;0.75;;
57667;SDS011;43499;52.366;12.912;2023-12-20T04:58:20;9.45;;;0.60;;
57667;SDS011;43499;52.366;12.912;2023-12-20T04:59:31;2.47;;;0.95;;
57667;SDS011;43499;52.366;12.912;2023-12-20T05:00:34;2.97;;;0.40;;
57667;SDS011;43499;52.366;12.912;2023-12-20T05:01:39;4.45;;;0.65;;
57667;SDS011;43499;52.366;12.912;2023-12-20T05:02:57;5.38;;;0.68;;
57667;SDS011;43499;52.366;12.912;2023-12-20T05:04:07;7.75;;;0.50;;
57667;SDS011;43499;52.366;12.912;2023-12-20T05:05:37;4.45;;;0.65;;
57667;SDS011;43499;52.366;12.912;2023-12-20T05:07:06;6.85;;;0.40;;
57667;SDS011;43499;52.366;12.912;2023-12-20T05:08:07;3.90;;;0.73;;
57667;SDS011;43499;52.366;12.912;2023-12-20T05:09:19;3.90;;;0.57;;
57667;SDS011;43499;52.366;12.912;2023-12-20T05:10:20;7.95;;;0.65;;
57667;SDS011;43499;52.366;12.912;2023-12-20T05:11:28;7.22;;;0.65;;
57667;SDS011;43499;52.366;12.912;2023-12-20T05:12:30;4.45;;;0.88;;
57667;SDS011;43499;52.366;12.912;2023-12-20T05:14:03;3.85;;;0.70;;
57667;SDS011;43499;52.366;12.912;2023-12-20T05:15:10;0.98;;;0.60;;
57667;SDS011;43499;52.366;12.912;2023-12-20T05:16:57;2.85;;;0.73;;
57667;SDS011;43499;52.366;12.912;2023-12-20T05:18:33;6.35;;;0.95;;
57667;SDS011;43499;52.366;12.912;2023-12-20T05:19:50;10.57;;;0.77;;
57667;SDS011;43499;52.366;12.912;2023-12-20T05:20:51;5.25;;;1.10;;
57667;SDS011;43499;52.366;12.912;2023-12-20T05:22:01;7.65;;;0.93;;
57667;SDS011;43499;52.366;12.912;2023-12-20T05:23:03;2.83;;;0.40;;
57667;SDS011;43499;52.366;12.912;2023-12-20T05:24:15;7.65;;;0.80;;
57667;SDS011;43499;52.366;12.912;2023-12-20T05:25:16;1.85;;;0.90;;
57667;SDS011;43499;52.366;12.912;2023-12-20T05:27:06;5.75;;;1.13;;
57667;SDS011;43499;52.366;12.912;2023-12-20T05:28:39;3.58;;;0.50;;
57667;SDS011;43499;52.366;12.912;2023-12-20T05:29:47;6.43;;;0.95;;
57667;SDS011;43499;52.366;12.912;2023-12-20T05:30:53;8.48;;;0.60;;
57667;SDS011;43499;52.366;12.912;2023-12-20T05:32:01;2.88;;;0.50;;
57667;SDS011;43499;52.366;12.912;2023-12-20T05:33:22;1.63;;;0.38;;
57667;SDS011;43499;52.366;12.912;2023-12-20T05:34:39;4.70;;;0.75;;
57667;SDS011;43499;52.366;12.912;2023-12-20T05:35:44;5.63;;;1.27;;
57667;SDS011;43499;52.366;12.912;2023-12-20T05:36:56;1.13;;;0.40;;
57667;SDS011;43499;52.366;12.912;2023-12-20T05:38:12;4.55;;;0.40;;
57667;SDS011;43499;52.366;12.912;2023-12-20T05:39:22;2.92;;;0.32;;
57667;SDS011;43499;52.366;12.912;2023-12-20T05:40:26;6.35;;;0.77;;
57667;SDS011;43499;52.366;12.912;2023-12-20T05:41:30;11.40;;;1.60;;
57667;SDS011;43499;52.366;12.912;2023-12-20T05:42:32;6.28;;;0.32;;
57667;SDS011;43499;52.366;12.912;2023-12-20T05:43:38;6.07;;;0.90;;
57667;SDS011;43499;52.366;12.912;2023-12-20T05:44:55;2.97;;;0.57;;
57667;SDS011;43499;52.366;12.912;2023-12-20T05:45:59;5.28;;;0.40;;
57667;SDS011;43499;52.366;12.912;2023-12-20T05:48:33;2.75;;;0.55;;
57667;SDS011;43499;52.366;12.912;2023-12-20T05:49:41;3.72;;;0.60;;
57667;SDS011;43499;52.366;12.912;2023-12-20T05:50:55;7.55;;;0.75;;
57667;SDS011;43499;52.366;12.912;2023-12-20T05:51:59;10.68;;;1.02;;
57667;SDS011;43499;52.366;12.912;2023-12-20T05:53:14;4.30;;;0.63;;
57667;SDS011;43499;52.366;12.912;2023-12-20T05:54:23;6.32;;;0.60;;
57667;SDS011;43499;52.366;12.912;2023-12-20T05:55:27;4.50;;;0.88;;
57667;SDS011;43499;52.366;12.912;2023-12-20T05:56:41;4.68;;;0.65;;
57667;SDS011;43499;52.366;12.912;2023-12-20T05:57:48;6.45;;;0.70;;
57667;SDS011;43499;52.366;12.912;2023-12-20T05:59:02;1.98;;;0.50;;
57667;SDS011;43499;52.366;12.912;2023-12-20T06:00:15;2.63;;;0.40;;
57667;SDS011;43499;52.366;12.912;2023-12-20T06:01:25;2.13;;;0.50;;
57667;SDS011;43499;52.366;12.912;2023-12-20T06:02:29;2.83;;;0.40;;
57667;SDS011;43499;52.366;12.912;2023-12-20T06:03:31;4.97;;;0.90;;
57667;SDS011;43499;52.366;12.912;2023-12-20T06:04:45;5.38;;;0.73;;
57667;SDS011;43499;52.366;12.912;2023-12-20T06:05:49;7.60;;;0.60;;
57667;SDS011;43499;52.366;12.912;2023-12-20T06:06:53;2.38;;;0.70;;
57667;SDS011;43499;52.366;12.912;2023-12-20T06:08:04;2.40;;;0.43;;
57667;SDS011;43499;52.366;12.912;2023-12-20T06:10:37;7.65;;;0.93;;
57667;SDS011;43499;52.366;12.912;2023-12-20T06:11:39;10.43;;;0.73;;
57667;SDS011;43499;52.366;12.912;2023-12-20T06:13:12;4.35;;;0.50;;
57667;SDS011;43499;52.366;12.912;2023-12-20T06:14:54;5.38;;;0.65;;
57667;SDS011;43499;52.366;12.912;2023-12-20T06:15:59;11.43;;;1.00;;
57667;SDS011;43499;52.366;12.912;2023-12-20T06:17:00;5.95;;;0.90;;
57667;SDS011;43499;52.366;12.912;2023-12-20T06:18:11;3.65;;;0.40;;
57667;SDS011;43499;52.366;12.912;2023-12-20T06:19:15;3.22;;;0.82;;
57667;SDS011;43499;52.366;12.912;2023-12-20T06:20:51;5.97;;;0.50;;
57667;SDS011;43499;52.366;12.912;2023-12-20T06:21:58;3.88;;;0.73;;
57667;SDS011;43499;52.366;12.912;2023-12-20T06:23:05;4.70;;;0.73;;
57667;SDS011;43499;52.366;12.912;2023-12-20T06:24:20;6.40;;;1.27;;
57667;SDS011;43499;52.366;12.912;2023-12-20T06:25:37;4.53;;;0.70;;
57667;SDS011;43499;52.366;12.912;2023-12-20T06:26:38;3.10;;;0.60;;
57667;SDS011;43499;52.366;12.912;2023-12-20T06:27:49;4.53;;;0.43;;
57667;SDS011;43499;52.366;12.912;2023-12-20T06:29:16;9.00;;;0.82;;
57667;SDS011;43499;52.366;12.912;2023-12-20T06:30:29;3.63;;;0.75;;
57667;SDS011;43499;52.366;12.912;2023-12-20T06:32:00;5.35;;;0.52;;
57667;SDS011;43499;52.366;12.912;2023-12-20T06:33:27;4.15;;;0.63;;
57667;SDS011;43499;52.366;12.912;2023-12-20T06:34:38;6.93;;;0.95;;
57667;SDS011;43499;52.366;12.912;2023-12-20T06:35:39;5.28;;;0.82;;
57667;SDS011;43499;52.366;12.912;2023-12-20T06:36:40;9.63;;;1.98;;
57667;SDS011;43499;52.366;12.912;2023-12-20T06:37:50;7.55;;;0.82;;
57667;SDS011;43499;52.366;12.912;2023-12-20T06:38:51;5.30;;;0.50;;
57667;SDS011;43499;52.366;12.912;2023-12-20T06:40:02;6.97;;;0.93;;
57667;SDS011;43499;52.366;12.912;2023-12-20T06:42:23;6.20;;;0.75;;
57667;SDS011;43499;52.366;12.912;2023-12-20T06:43:27;3.50;;;0.80;;
57667;SDS011;43499;52.366;12.912;2023-12-20T06:44:41;2.28;;;0.43;;
57667;SDS011;43499;52.366;12.912;2023-12-20T06:45:53;2.65;;;0.32;;
57667;SDS011;43499;52.366;12.912;2023-12-20T06:46:54;2.03;;;0.73;;
57667;SDS011;43499;52.366;12.912;2023-12-20T06:47:55;4.13;;;0.65;;
57667;SDS011;43499;52.366;12.912;2023-12-20T06:48:59;6.75;;;1.75;;
57667;SDS011;43499;52.366;12.912;2023-12-20T06:50:24;11.00;;;1.27;;
57667;SDS011;43499;52.366;12.912;2023-12-20T06:51:41;4.88;;;1.02;;
57667;SDS011;43499;52.366;12.912;2023-12-20T06:53:02;7.63;;;0.73;;
57667;SDS011;43499;52.366;12.912;2023-12-20T06:54:36;4.40;;;0.80;;
57667;SDS011;43499;52.366;12.912;2023-12-20T06:55:43;2.22;;;0.47;;
57667;SDS011;43499;52.366;12.912;2023-12-20T06:56:47;4.22;;;0.55;;
57667;SDS011;43499;52.366;12.912;2023-12-20T06:57:48;8.18;;;0.50;;
57667;SDS011;43499;52.366;12.912;2023-12-20T06:58:49;5.55;;;0.88;;
57667;SDS011;43499;52.366;12.912;2023-12-20T07:00:39;3.63;;;0.25;;
57667;SDS011;43499;52.366;12.912;2023-12-20T07:01:51;5.50;;;0.57;;
57667;SDS011;43499;52.366;12.912;2023-12-20T07:03:14;6.28;;;0.90;;
57667;SDS011;43499;52.366;12.912;2023-12-20T07:04:16;5.43;;;0.63;;
57667;SDS011;43499;52.366;12.912;2023-12-20T07:05:30;4.40;;;0.60;;
57667;SDS011;43499;52.366;12.912;2023-12-20T07:06:31;4.15;;;0.85;;
57667;SDS011;43499;52.366;12.912;2023-12-20T07:07:32;4.32;;;0.85;;
57667;SDS011;43499;52.366;12.912;2023-12-20T07:08:33;4.35;;;0.43;;
57667;SDS011;43499;52.366;12.912;2023-12-20T07:09:43;5.03;;;0.80;;
57667;SDS011;43499;52.366;12.912;2023-12-20T07:10:53;2.70;;;0.68;;
57667;SDS011;43499;52.366;12.912;2023-12-20T07:12:26;6.88;;;0.70;;
57667;SDS011;43499;52.366;12.912;2023-12-20T07:13:31;2.63;;;0.32;;
57667;SDS011;43499;52.366;12.912;2023-12-20T07:14:58;4.85;;;0.70;;
57667;SDS011;43499;52.366;12.912;2023-12-20T07:16:01;3.92;;;0.52;;
57667;SDS011;43499;52.366;12.912;2023-12-20T07:17:06;2.35;;;0.60;;
57667;SDS011;43499;52.366;12.912;2023-12-20T07:18:15;8.20;;;0.52;;
57667;SDS011;43499;52.366;12.912;2023-12-20T07:19:25;5.05;;;0.73;;
57667;SDS011;43499;52.366;12.912;2023-12-20T07:20:30;2.67;;;0.30;;
57667;SDS011;43499;52.366;12.912;2023-12-20T07:21:52;2.30;;;0.55;;
57667;SDS011;43499;52.366;12.912;2023-12-20T07:22:57;6.93;;;0.45;;
57667;SDS011;43499;52.366;12.912;2023-12-20T07:23:58;1.23;;;0.47;;
57667;SDS011;43499;52.366;12.912;2023-12-20T07:25:01;1.75;;;0.45;;
57667;SDS011;43499;52.366;12.912;2023-12-20T07:26:13;5.15;;;0.35;;
57667;SDS011;43499;52.366;12.912;2023-12-20T07:27:28;10.88;;;0.95;;
57667;SDS011;43499;52.366;12.912;2023-12-20T07:28:36;9.32;;;1.25;;
57667;SDS011;43499;52.366;12.912;2023-12-20T07:29:37;5.18;;;0.55;;
57667;SDS011;43499;52.366;12.912;2023-12-20T07:30:40;2.30;;;1.33;;
57667;SDS011;43499;52.366;12.912;2023-12-20T07:32:16;8.10;;;0.77;;
57667;SDS011;43499;52.366;12.912;2023-12-20T07:33:27;3.70;;;0.90;;
57667;SDS011;43499;52.366;12.912;2023-12-20T07:34:33;1.70;;;0.70;;
57667;SDS011;43499;52.366;12.912;2023-12-20T07:35:34;3.22;;;1.17;;
57667;SDS011;43499;52.366;12.912;2023-12-20T07:36:35;8.70;;;0.90;;
57667;SDS011;43499;52.366;12.912;2023-12-20T07:37:47;7.03;;;0.60;;
57667;SDS011;43499;52.366;12.912;2023-12-20T07:38:54;4.30;;;0.55;;
57667;SDS011;43499;52.366;12.912;2023-12-20T07:39:55;8.45;;;1.02;;
57667;SDS011;43499;52.366;12.912;2023-12-20T07:40:58;6.10;;;0.60;;
57667;SDS011;43499;52.366;12.912;2023-12-20T07:42:08;3.40;;;0.50;;
57667;SDS011;43499;52.366;12.912;2023-12-20T07:43:18;3.33;;;0.43;;
57667;SDS011;43499;52.366;12.912;2023-12-20T07:44:22;3.28;;;0.40;;
57667;SDS011;43499;52.366;12.912;2023-12-20T07:45:26;5.90;;;0.30;;
57667;SDS011;43499;52.366;12.912;2023-12-20T07:46:37;5.95;;;1.27;;
57667;SDS011;43499;52.366;12.912;2023-12-20T07:47:39;8.30;;;0.45;;
57667;SDS011;43499;52.366;12.912;2023-12-20T07:48:43;3.55;;;1.23;;
57667;SDS011;43499;52.366;12.912;2023-12-20T07:50:12;3.22;;;0.40;;
57667;SDS011;43499;52.366;12.912;2023-12-20T07:51:45;5.88;;;0.52;;
57667;SDS011;43499;52.366;12.912;2023-12-20T07:52:49;2.33;;;0.45;;
57667;SDS011;43499;52.366;12.912;2023-12-20T07:53:54;2.55;;;0.28;;
57667;SDS011;43499;52.366;12.912;2023-12-20T07:55:27;5.22;;;0.50;;
57667;SDS011;43499;52.366;12.912;2023-12-20T07:56:38;6.20;;;1.35;;
57667;SDS011;43499;52.366;12.912;2023-12-20T07:57:54;10.25;;;0.63;;
57667;SDS011;43499;52.366;12.912;2023-12-20T08:00:28;2.75;;;0.43;;
57667;SDS011;43499;52.366;12.912;2023-12-20T08:01:32;3.45;;;1.10;;
57667;SDS011;43499;52.366;12.912;2023-12-20T08:02:48;3.63;;;0.45;;
57667;SDS011;43499;52.366;12.912;2023-12-20T08:03:53;4.65;;;0.82;;
57667;SDS011;43499;52.366;12.912;2023-12-20T08:07:01;6.57;;;0.43;;
57667;SDS011;43499;52.366;12.912;2023-12-20T08:08:37;2.92;;;0.55;;
57667;SDS011;43499;52.366;12.912;2023-12-20T08:09:48;2.72;;;0.32;;
57667;SDS011;43499;52.366;12.912;2023-12-20T08:11:04;4.72;;;0.50;;
57667;SDS011;43499;52.366;12.912;2023-12-20T08:12:08;2.58;;;1.15;;
57667;SDS011;43499;52.366;12.912;2023-12-20T08:15:24;3.78;;;0.50;;
57667;SDS011;43499;52.366;12.912;2023-12-20T08:16:32;5.30;;;0.98;;
57667;SDS011;43499;52.366;12.912;2023-12-20T08:17:35;13.55;;;1.35;;
57667;SDS011;43499;52.366;12.912;2023-12-20T08:18:37;4.30;;;1.17;;
57667;SDS011;43499;52.366;12.912;2023-12-20T08:20:04;7.47;;;1.25;;
57667;SDS011;43499;52.366;12.912;2023-12-20T08:21:23;8.95;;;1.35;;
57667;SDS011;43499;52.366;12.912;2023-12-20T08:22:24;4.95;;;1.02;;
57667;SDS011;43499;52.366;12.912;2023-12-20T08:23:33;4.80;;;0.93;;
57667;SDS011;43499;52.366;12.912;2023-12-20T08:24:50;8.35;;;1.23;;
57667;SDS011;43499;52.366;12.912;2023-12-20T08:26:07;3.60;;;0.95;;
57667;SDS011;43499;52.366;12.912;2023-12-20T08:27:20;7.90;;;1.10;;
57667;SDS011;43499;52.366;12.912;2023-12-20T08:28:38;10.00;;;0.70;;
57667;SDS011;43499;52.366;12.912;2023-12-20T08:29:43;3.25;;;0.60;;
57667;SDS011;43499;52.366;12.912;2023-12-20T08:30:56;4.80;;;0.68;;
57667;SDS011;43499;52.366;12.912;2023-12-20T08:31:59;4.45;;;0.90;;
57667;SDS011;43499;52.366;12.912;2023-12-20T08:33:01;3.33;;;0.47;;
57667;SDS011;43499;52.366;12.912;2023-12-20T08:34:08;5.95;;;0.43;;
57667;SDS011;43499;52.366;12.912;2023-12-20T08:35:09;2.83;;;1.17;;
57667;SDS011;43499;52.366;12.912;2023-12-20T08:36:31;4.85;;;1.27;;
57667;SDS011;43499;52.366;12.912;2023-12-20T08:37:35;5.90;;;0.55;;
57667;SDS011;43499;52.366;12.912;2023-12-20T08:38:42;6.32;;;0.60;;
57667;SDS011;43499;52.366;12.912;2023-12-20T08:39:43;3.63;;;0.80;;
57667;SDS011;43499;52.366;12.912;2023-12-20T08:41:01;3.40;;;0.40;;
57667;SDS011;43499;52.366;12.912;2023-12-20T08:42:17;3.75;;;0.47;;
57667;SDS011;43499;52.366;12.912;2023-12-20T08:43:35;5.35;;;0.43;;
57667;SDS011;43499;52.366;12.912;2023-12-20T08:46:59;0.85;;;0.20;;
57667;SDS011;43499;52.366;12.912;2023-12-20T08:48:42;8.38;;;0.60;;
57667;SDS011;43499;52.366;12.912;2023-12-20T08:55:48;3.42;;;0.28;;
57667;SDS011;43499;52.366;12.912;2023-12-20T08:57:45;3.78;;;0.70;;
57667;SDS011;43499;52.366;12.912;2023-12-20T08:59:25;4.03;;;0.43;;
57667;SDS011;43499;52.366;12.912;2023-12-20T09:01:31;4.05;;;0.40;;
57667;SDS011;43499;52.366;12.912;2023-12-20T09:05:17;6.20;;;0.60;;
57667;SDS011;43499;52.366;12.912;2023-12-20T09:06:43;6.68;;;0.80;;
57667;SDS011;43499;52.366;12.912;2023-12-20T09:11:20;0.40;;;0.28;;
57667;SDS011;43499;52.366;12.912;2023-12-20T09:12:57;3.38;;;0.75;;
57667;SDS011;43499;52.366;12.912;2023-12-20T09:14:04;2.88;;;0.43;;
57667;SDS011;43499;52.366;12.912;2023-12-20T09:15:30;8.10;;;0.80;;
57667;SDS011;43499;52.366;12.912;2023-12-20T09:17:41;5.15;;;0.57;;
57667;SDS011;43499;52.366;12.912;2023-12-20T09:19:01;3.50;;;0.60;;
57667;SDS011;43499;52.366;12.912;2023-12-20T09:20:31;2.78;;;0.47;;
57667;SDS011;43499;52.366;12.912;2023-12-20T09:22:26;5.18;;;0.68;;
57667;SDS011;43499;52.366;12.912;2023-12-20T09:24:31;3.55;;;0.40;;
57667;SDS011;43499;52.366;12.912;2023-12-20T09:26:10;3.05;;;0.50;;
57667;SDS011;43499;52.366;12.912;2023-12-20T09:30:38;7.07;;;0.70;;
57667;SDS011;43499;52.366;12.912;2023-12-20T09:32:13;7.00;;;0.73;;
57667;SDS011;43499;52.366;12.912;2023-12-20T09:36:53;5.57;;;0.55;;
57667;SDS011;43499;52.366;12.912;2023-12-20T09:43:52;6.68;;;0.85;;
57667;SDS011;43499;52.366;12.912;2023-12-20T09:48:12;1.75;;;0.22;;
57667;SDS011;43499;52.366;12.912;2023-12-20T09:49:13;5.55;;;0.68;;
57667;SDS011;43499;52.366;12.912;2023-12-20T09:50:15;9.43;;;0.70;;
57667;SDS011;43499;52.366;12.912;2023-12-20T09:51:24;8.15;;;1.88;;
57667;SDS011;43499;52.366;12.912;2023-12-20T09:52:45;2.10;;;0.93;;
57667;SDS011;43499;52.366;12.912;2023-12-20T09:54:06;4.38;;;0.60;;
57667;SDS011;43499;52.366;12.912;2023-12-20T09:55:07;1.63;;;0.38;;
57667;SDS011;43499;52.366;12.912;2023-12-20T09:56:23;8.43;;;0.50;;
57667;SDS011;43499;52.366;12.912;2023-12-20T09:57:50;6.95;;;0.32;;
57667;SDS011;43499;52.366;12.912;2023-12-20T09:58:59;9.73;;;1.80;;
57667;SDS011;43499;52.366;12.912;2023-12-20T10:00:15;5.88;;;0.60;;
57667;SDS011;43499;52.366;12.912;2023-12-20T10:01:21;5.25;;;0.60;;
57667;SDS011;43499;52.366;12.912;2023-12-20T10:02:31;4.03;;;0.75;;
57667;SDS011;43499;52.366;12.912;2023-12-20T10:03:34;7.18;;;0.70;;
57667;SDS011;43499;52.366;12.912;2023-12-20T10:04:39;1.80;;;0.40;;
57667;SDS011;43499;52.366;12.912;2023-12-20T10:05:56;8.73;;;0.68;;
57667;SDS011;43499;52.366;12.912;2023-12-20T10:08:56;4.13;;;0.40;;
57667;SDS011;43499;52.366;12.912;2023-12-20T10:09:59;3.10;;;0.65;;
57667;SDS011;43499;52.366;12.912;2023-12-20T10:13:31;6.20;;;0.95;;
57667;SDS011;43499;52.366;12.912;2023-12-20T10:16:40;4.95;;;0.43;;
57667;SDS011;43499;52.366;12.912;2023-12-20T10:19:33;3.05;;;0.40;;
57667;SDS011;43499;52.366;12.912;2023-12-20T10:20:37;2.97;;;0.32;;
57667;SDS011;43499;52.366;12.912;2023-12-20T10:21:52;9.73;;;0.90;;
57667;SDS011;43499;52.366;12.912;2023-12-20T10:22:53;3.17;;;0.60;;
57667;SDS011;43499;52.366;12.912;2023-12-20T10:23:58;4.82;;;0.40;;
57667;SDS011;43499;52.366;12.912;2023-12-20T10:25:20;14.30;;;1.30;;
57667;SDS011;43499;52.366;12.912;2023-12-20T10:27:10;3.35;;;0.40;;
57667;SDS011;43499;52.366;12.912;2023-12-20T10:28:20;4.25;;;0.80;;
57667;SDS011;43499;52.366;12.912;2023-12-20T10:29:52;2.45;;;0.70;;
57667;SDS011;43499;52.366;12.912;2023-12-20T10:32:49;3.85;;;0.75;;
57667;SDS011;43499;52.366;12.912;2023-12-20T10:34:43;4.07;;;0.50;;
57667;SDS011;43499;52.366;12.912;2023-12-20T10:36:41;7.95;;;1.20;;
57667;SDS011;43499;52.366;12.912;2023-12-20T10:37:55;6.50;;;0.60;;
57667;SDS011;43499;52.366;12.912;2023-12-20T10:39:15;2.70;;;0.43;;
57667;SDS011;43499;52.366;12.912;2023-12-20T10:40:37;9.10;;;1.08;;
57667;SDS011;43499;52.366;12.912;2023-12-20T10:42:06;1.52;;;0.43;;
57667;SDS011;43499;52.366;12.912;2023-12-20T10:44:52;4.72;;;0.50;;
57667;SDS011;43499;52.366;12.912;2023-12-20T10:46:05;6.15;;;0.52;;
57667;SDS011;43499;52.366;12.912;2023-12-20T10:51:07;4.38;;;0.95;;
57667;SDS011;43499;52.366;12.912;2023-12-20T10:53:05;3.40;;;0.57;;
57667;SDS011;43499;52.366;12.912;2023-12-20T10:54:54;2.50;;;0.55;;
57667;SDS011;43499;52.366;12.912;2023-12-20T10:56:57;4.65;;;0.52;;
57667;SDS011;43499;52.366;12.912;2023-12-20T10:58:39;4.93;;;0.65;;
57667;SDS011;43499;52.366;12.912;2023-12-20T11:00:33;0.65;;;0.30;;
57667;SDS011;43499;52.366;12.912;2023-12-20T11:04:15;2.28;;;0.98;;
57667;SDS011;43499;52.366;12.912;2023-12-20T11:13:47;7.57;;;1.17;;
57667;SDS011;43499;52.366;12.912;2023-12-20T11:15:13;4.15;;;0.65;;
57667;SDS011;43499;52.366;12.912;2023-12-20T11:16:16;2.70;;;0.30;;
57667;SDS011;43499;52.366;12.912;2023-12-20T11:17:25;7.20;;;0.57;;